sensor_id;sensor_type;location;lat;lon;timestamp;temperature;humidity
16032;DHT22;8120;48.308;8.914;2023-07-02T00:00:17;15.60;87.50
16032;DHT22;8120;48.308;8.914;2023-07-02T00:02:45;15.50;87.40
16032;DHT22;8120;48.308;8.914;2023-07-02T00:05:15;15.50;87.60
16032;DHT22;8120;48.308;8.914;2023-07-02T00:07:43;15.50;87.70
16032;DHT22;8120;48.308;8.914;2023-07-02T00:10:11;15.40;88.00
16032;DHT22;8120;48.308;8.914;2023-07-02T00:12:39;15.40;88.40
16032;DHT22;8120;48.308;8.914;2023-07-02T00:15:07;15.40;88.30
16032;DHT22;8120;48.308;8.914;2023-07-02T00:17:35;15.40;88.20
16032;DHT22;8120;48.308;8.914;2023-07-02T00:20:07;15.40;88.20
16032;DHT22;8120;48.308;8.914;2023-07-02T00:22:42;15.40;88.00
16032;DHT22;8120;48.308;8.914;2023-07-02T00:25:13;15.40;87.80
16032;DHT22;8120;48.308;8.914;2023-07-02T00:27:41;15.40;87.70
16032;DHT22;8120;48.308;8.914;2023-07-02T00:30:09;15.40;87.90
16032;DHT22;8120;48.308;8.914;2023-07-02T00:32:37;15.50;87.90
16032;DHT22;8120;48.308;8.914;2023-07-02T00:35:06;15.50;87.80
16032;DHT22;8120;48.308;8.914;2023-07-02T00:37:34;15.50;87.80
16032;DHT22;8120;48.308;8.914;2023-07-02T00:40:04;15.50;87.80
16032;DHT22;8120;48.308;8.914;2023-07-02T00:42:32;15.60;88.70
16032;DHT22;8120;48.308;8.914;2023-07-02T00:45:00;15.50;90.10
16032;DHT22;8120;48.308;8.914;2023-07-02T00:47:33;15.40;91.10
16032;DHT22;8120;48.308;8.914;2023-07-02T00:50:02;15.40;91.50
16032;DHT22;8120;48.308;8.914;2023-07-02T00:52:30;15.40;92.10
16032;DHT22;8120;48.308;8.914;2023-07-02T00:54:58;15.40;92.20
16032;DHT22;8120;48.308;8.914;2023-07-02T00:57:27;15.30;92.40
16032;DHT22;8120;48.308;8.914;2023-07-02T00:59:56;15.30;92.60
16032;DHT22;8120;48.308;8.914;2023-07-02T01:02:27;15.20;92.80
16032;DHT22;8120;48.308;8.914;2023-07-02T01:04:57;15.10;93.10
16032;DHT22;8120;48.308;8.914;2023-07-02T01:07:27;15.10;93.80
16032;DHT22;8120;48.308;8.914;2023-07-02T01:09:55;15.10;94.80
16032;DHT22;8120;48.308;8.914;2023-07-02T01:12:23;15.00;94.90
16032;DHT22;8120;48.308;8.914;2023-07-02T01:14:54;15.00;95.10
16032;DHT22;8120;48.308;8.914;2023-07-02T01:17:26;15.00;95.30
16032;DHT22;8120;48.308;8.914;2023-07-02T01:19:57;14.90;95.60
16032;DHT22;8120;48.308;8.914;2023-07-02T01:22:27;15.00;95.10
16032;DHT22;8120;48.308;8.914;2023-07-02T01:24:56;15.00;93.80
16032;DHT22;8120;48.308;8.914;2023-07-02T01:27:27;14.90;93.90
16032;DHT22;8120;48.308;8.914;2023-07-02T01:29:56;14.90;93.60
16032;DHT22;8120;48.308;8.914;2023-07-02T01:32:24;14.90;94.00
16032;DHT22;8120;48.308;8.914;2023-07-02T01:34:52;14.80;94.30
16032;DHT22;8120;48.308;8.914;2023-07-02T01:37:22;14.80;94.80
16032;DHT22;8120;48.308;8.914;2023-07-02T01:39:50;14.80;95.00
16032;DHT22;8120;48.308;8.914;2023-07-02T01:42:18;14.80;94.90
16032;DHT22;8120;48.308;8.914;2023-07-02T01:44:48;14.70;95.20
16032;DHT22;8120;48.308;8.914;2023-07-02T01:47:16;14.70;95.10
16032;DHT22;8120;48.308;8.914;2023-07-02T01:49:45;14.70;94.80
16032;DHT22;8120;48.308;8.914;2023-07-02T01:52:13;14.70;94.70
16032;DHT22;8120;48.308;8.914;2023-07-02T01:54:43;14.60;94.90
16032;DHT22;8120;48.308;8.914;2023-07-02T01:57:10;14.60;95.20
16032;DHT22;8120;48.308;8.914;2023-07-02T01:59:38;14.50;95.60
16032;DHT22;8120;48.308;8.914;2023-07-02T02:02:06;14.50;96.30
16032;DHT22;8120;48.308;8.914;2023-07-02T02:04:34;14.50;96.20
16032;DHT22;8120;48.308;8.914;2023-07-02T02:07:02;14.50;96.00
16032;DHT22;8120;48.308;8.914;2023-07-02T02:09:30;14.40;96.00
16032;DHT22;8120;48.308;8.914;2023-07-02T02:12:00;14.30;96.10
16032;DHT22;8120;48.308;8.914;2023-07-02T02:14:28;14.30;96.40
16032;DHT22;8120;48.308;8.914;2023-07-02T02:16:56;14.20;96.90
16032;DHT22;8120;48.308;8.914;2023-07-02T02:19:24;14.30;96.60
16032;DHT22;8120;48.308;8.914;2023-07-02T02:21:51;14.30;95.70
16032;DHT22;8120;48.308;8.914;2023-07-02T02:24:19;14.30;95.70
16032;DHT22;8120;48.308;8.914;2023-07-02T02:26:47;14.30;95.60
16032;DHT22;8120;48.308;8.914;2023-07-02T02:29:16;14.40;95.50
16032;DHT22;8120;48.308;8.914;2023-07-02T02:31:44;14.50;94.60
16032;DHT22;8120;48.308;8.914;2023-07-02T02:34:12;14.50;94.10
16032;DHT22;8120;48.308;8.914;2023-07-02T02:36:40;14.60;93.80
16032;DHT22;8120;48.308;8.914;2023-07-02T02:39:07;14.60;93.80
16032;DHT22;8120;48.308;8.914;2023-07-02T02:41:35;14.60;93.50
16032;DHT22;8120;48.308;8.914;2023-07-02T02:44:04;14.60;93.60
16032;DHT22;8120;48.308;8.914;2023-07-02T02:46:33;14.60;93.70
16032;DHT22;8120;48.308;8.914;2023-07-02T02:49:01;14.70;93.70
16032;DHT22;8120;48.308;8.914;2023-07-02T02:51:29;14.70;93.30
16032;DHT22;8120;48.308;8.914;2023-07-02T02:53:56;14.80;93.50
16032;DHT22;8120;48.308;8.914;2023-07-02T02:56:24;14.80;93.30
16032;DHT22;8120;48.308;8.914;2023-07-02T02:58:52;14.80;93.20
16032;DHT22;8120;48.308;8.914;2023-07-02T03:01:20;14.90;92.90
16032;DHT22;8120;48.308;8.914;2023-07-02T03:03:49;14.90;93.00
16032;DHT22;8120;48.308;8.914;2023-07-02T03:06:17;14.80;94.00
16032;DHT22;8120;48.308;8.914;2023-07-02T03:08:45;14.80;94.40
16032;DHT22;8120;48.308;8.914;2023-07-02T03:11:13;14.80;94.30
16032;DHT22;8120;48.308;8.914;2023-07-02T03:13:41;14.70;94.50
16032;DHT22;8120;48.308;8.914;2023-07-02T03:16:08;14.70;95.60
16032;DHT22;8120;48.308;8.914;2023-07-02T03:18:36;14.60;95.50
16032;DHT22;8120;48.308;8.914;2023-07-02T03:21:06;14.60;96.10
16032;DHT22;8120;48.308;8.914;2023-07-02T03:23:34;14.60;95.80
16032;DHT22;8120;48.308;8.914;2023-07-02T03:26:02;14.50;96.30
16032;DHT22;8120;48.308;8.914;2023-07-02T03:28:30;14.50;96.30
16032;DHT22;8120;48.308;8.914;2023-07-02T03:30:58;14.50;96.20
16032;DHT22;8120;48.308;8.914;2023-07-02T03:33:25;14.50;96.80
16032;DHT22;8120;48.308;8.914;2023-07-02T03:35:53;14.50;95.60
16032;DHT22;8120;48.308;8.914;2023-07-02T03:38:22;14.50;94.70
16032;DHT22;8120;48.308;8.914;2023-07-02T03:40:50;14.50;94.20
16032;DHT22;8120;48.308;8.914;2023-07-02T03:43:18;14.50;94.40
16032;DHT22;8120;48.308;8.914;2023-07-02T03:45:46;14.50;94.10
16032;DHT22;8120;48.308;8.914;2023-07-02T03:48:14;14.50;94.00
16032;DHT22;8120;48.308;8.914;2023-07-02T03:50:41;14.50;94.20
16032;DHT22;8120;48.308;8.914;2023-07-02T03:53:09;14.50;93.90
16032;DHT22;8120;48.308;8.914;2023-07-02T03:55:38;14.40;94.20
16032;DHT22;8120;48.308;8.914;2023-07-02T03:58:07;14.40;94.30
16032;DHT22;8120;48.308;8.914;2023-07-02T04:00:35;14.40;94.60
16032;DHT22;8120;48.308;8.914;2023-07-02T04:03:03;14.40;94.60
16032;DHT22;8120;48.308;8.914;2023-07-02T04:05:30;14.40;94.80
16032;DHT22;8120;48.308;8.914;2023-07-02T04:07:58;14.40;94.80
16032;DHT22;8120;48.308;8.914;2023-07-02T04:10:26;14.50;94.80
16032;DHT22;8120;48.308;8.914;2023-07-02T04:12:55;14.40;94.70
16032;DHT22;8120;48.308;8.914;2023-07-02T04:15:23;14.50;95.10
16032;DHT22;8120;48.308;8.914;2023-07-02T04:17:53;14.50;95.20
16032;DHT22;8120;48.308;8.914;2023-07-02T04:20:21;14.50;94.50
16032;DHT22;8120;48.308;8.914;2023-07-02T04:22:49;14.60;94.90
16032;DHT22;8120;48.308;8.914;2023-07-02T04:25:16;14.60;94.90
16032;DHT22;8120;48.308;8.914;2023-07-02T04:28:06;14.60;94.40
16032;DHT22;8120;48.308;8.914;2023-07-02T04:30:33;14.60;94.20
16032;DHT22;8120;48.308;8.914;2023-07-02T04:33:01;14.60;93.90
16032;DHT22;8120;48.308;8.914;2023-07-02T04:35:29;14.60;94.10
16032;DHT22;8120;48.308;8.914;2023-07-02T04:37:57;14.60;93.70
16032;DHT22;8120;48.308;8.914;2023-07-02T04:40:25;14.60;93.00
16032;DHT22;8120;48.308;8.914;2023-07-02T04:42:53;14.70;93.00
16032;DHT22;8120;48.308;8.914;2023-07-02T04:45:26;14.80;92.00
16032;DHT22;8120;48.308;8.914;2023-07-02T04:47:58;14.80;91.30
16032;DHT22;8120;48.308;8.914;2023-07-02T04:50:27;14.90;91.20
16032;DHT22;8120;48.308;8.914;2023-07-02T04:52:55;14.80;91.60
16032;DHT22;8120;48.308;8.914;2023-07-02T04:55:23;14.90;91.50
16032;DHT22;8120;48.308;8.914;2023-07-02T04:57:51;14.80;90.90
16032;DHT22;8120;48.308;8.914;2023-07-02T05:00:19;14.60;90.20
16032;DHT22;8120;48.308;8.914;2023-07-02T05:02:50;14.50;91.60
16032;DHT22;8120;48.308;8.914;2023-07-02T05:05:18;14.50;91.30
16032;DHT22;8120;48.308;8.914;2023-07-02T05:07:46;14.50;91.90
16032;DHT22;8120;48.308;8.914;2023-07-02T05:10:14;14.60;92.20
16032;DHT22;8120;48.308;8.914;2023-07-02T05:12:41;14.60;91.40
16032;DHT22;8120;48.308;8.914;2023-07-02T05:15:09;14.60;90.90
16032;DHT22;8120;48.308;8.914;2023-07-02T05:17:38;14.70;91.20
16032;DHT22;8120;48.308;8.914;2023-07-02T05:20:09;14.80;91.00
16032;DHT22;8120;48.308;8.914;2023-07-02T05:22:37;14.90;89.90
16032;DHT22;8120;48.308;8.914;2023-07-02T05:25:05;15.00;88.50
16032;DHT22;8120;48.308;8.914;2023-07-02T05:27:33;15.00;89.90
16032;DHT22;8120;48.308;8.914;2023-07-02T05:30:01;15.20;89.00
16032;DHT22;8120;48.308;8.914;2023-07-02T05:32:29;15.40;88.60
16032;DHT22;8120;48.308;8.914;2023-07-02T05:34:57;15.60;87.70
16032;DHT22;8120;48.308;8.914;2023-07-02T05:37:26;15.70;86.30
16032;DHT22;8120;48.308;8.914;2023-07-02T05:39:54;15.70;86.10
16032;DHT22;8120;48.308;8.914;2023-07-02T05:42:22;15.70;86.50
16032;DHT22;8120;48.308;8.914;2023-07-02T05:44:50;15.80;85.00
16032;DHT22;8120;48.308;8.914;2023-07-02T05:47:17;15.90;84.00
16032;DHT22;8120;48.308;8.914;2023-07-02T05:49:45;15.90;84.00
16032;DHT22;8120;48.308;8.914;2023-07-02T05:52:13;16.10;82.30
16032;DHT22;8120;48.308;8.914;2023-07-02T05:54:42;16.10;80.80
16032;DHT22;8120;48.308;8.914;2023-07-02T05:57:10;15.90;79.80
16032;DHT22;8120;48.308;8.914;2023-07-02T05:59:38;16.00;80.60
16032;DHT22;8120;48.308;8.914;2023-07-02T06:02:06;16.10;79.70
16032;DHT22;8120;48.308;8.914;2023-07-02T06:04:34;16.20;80.30
16032;DHT22;8120;48.308;8.914;2023-07-02T06:07:02;16.20;79.90
16032;DHT22;8120;48.308;8.914;2023-07-02T06:09:30;16.60;79.10
16032;DHT22;8120;48.308;8.914;2023-07-02T06:11:59;16.90;79.00
16032;DHT22;8120;48.308;8.914;2023-07-02T06:14:27;17.30;78.60
16032;DHT22;8120;48.308;8.914;2023-07-02T06:16:55;17.60;74.30
16032;DHT22;8120;48.308;8.914;2023-07-02T06:19:24;17.40;75.10
16032;DHT22;8120;48.308;8.914;2023-07-02T06:21:52;17.70;75.20
16032;DHT22;8120;48.308;8.914;2023-07-02T06:24:19;17.70;74.30
16032;DHT22;8120;48.308;8.914;2023-07-02T06:26:47;17.70;75.10
16032;DHT22;8120;48.308;8.914;2023-07-02T06:29:16;18.10;73.00
16032;DHT22;8120;48.308;8.914;2023-07-02T06:31:44;18.30;71.10
16032;DHT22;8120;48.308;8.914;2023-07-02T06:34:12;17.90;72.50
16032;DHT22;8120;48.308;8.914;2023-07-02T06:36:41;17.90;71.60
16032;DHT22;8120;48.308;8.914;2023-07-02T06:39:09;18.50;71.20
16032;DHT22;8120;48.308;8.914;2023-07-02T06:41:36;18.30;72.70
16032;DHT22;8120;48.308;8.914;2023-07-02T06:44:04;18.10;73.50
16032;DHT22;8120;48.308;8.914;2023-07-02T06:46:34;17.70;74.00
16032;DHT22;8120;48.308;8.914;2023-07-02T06:49:02;17.10;76.80
16032;DHT22;8120;48.308;8.914;2023-07-02T06:51:30;17.00;78.20
16032;DHT22;8120;48.308;8.914;2023-07-02T06:53:58;16.90;78.30
16032;DHT22;8120;48.308;8.914;2023-07-02T06:56:25;16.80;79.20
16032;DHT22;8120;48.308;8.914;2023-07-02T06:58:53;17.00;78.40
16032;DHT22;8120;48.308;8.914;2023-07-02T07:01:21;17.40;77.80
16032;DHT22;8120;48.308;8.914;2023-07-02T07:03:50;17.30;75.70
16032;DHT22;8120;48.308;8.914;2023-07-02T07:06:18;17.00;76.40
16032;DHT22;8120;48.308;8.914;2023-07-02T07:08:46;16.70;78.40
16032;DHT22;8120;48.308;8.914;2023-07-02T07:11:15;16.80;77.90
16032;DHT22;8120;48.308;8.914;2023-07-02T07:13:43;16.60;78.10
16032;DHT22;8120;48.308;8.914;2023-07-02T07:16:11;16.40;78.90
16032;DHT22;8120;48.308;8.914;2023-07-02T07:18:39;16.60;77.90
16032;DHT22;8120;48.308;8.914;2023-07-02T07:21:08;16.20;79.70
16032;DHT22;8120;48.308;8.914;2023-07-02T07:23:36;16.30;79.30
16032;DHT22;8120;48.308;8.914;2023-07-02T07:26:04;16.30;79.60
16032;DHT22;8120;48.308;8.914;2023-07-02T07:28:32;16.50;78.90
16032;DHT22;8120;48.308;8.914;2023-07-02T07:31:00;16.40;77.00
16032;DHT22;8120;48.308;8.914;2023-07-02T07:33:28;16.30;78.80
16032;DHT22;8120;48.308;8.914;2023-07-02T07:35:55;16.50;78.40
16032;DHT22;8120;48.308;8.914;2023-07-02T07:38:25;16.60;76.80
16032;DHT22;8120;48.308;8.914;2023-07-02T07:40:52;16.60;77.40
16032;DHT22;8120;48.308;8.914;2023-07-02T07:43:20;17.70;74.70
16032;DHT22;8120;48.308;8.914;2023-07-02T07:45:48;17.80;70.70
16032;DHT22;8120;48.308;8.914;2023-07-02T07:48:16;18.40;71.10
16032;DHT22;8120;48.308;8.914;2023-07-02T07:50:44;19.10;66.70
16032;DHT22;8120;48.308;8.914;2023-07-02T07:53:12;19.00;66.50
16032;DHT22;8120;48.308;8.914;2023-07-02T07:55:42;18.50;67.80
16032;DHT22;8120;48.308;8.914;2023-07-02T07:58:10;17.90;68.20
16032;DHT22;8120;48.308;8.914;2023-07-02T08:00:37;17.60;69.20
16032;DHT22;8120;48.308;8.914;2023-07-02T08:03:05;18.10;68.40
16032;DHT22;8120;48.308;8.914;2023-07-02T08:05:33;18.70;66.10
16032;DHT22;8120;48.308;8.914;2023-07-02T08:08:01;19.30;62.70
16032;DHT22;8120;48.308;8.914;2023-07-02T08:10:29;19.10;61.00
16032;DHT22;8120;48.308;8.914;2023-07-02T08:12:58;19.10;60.00
16032;DHT22;8120;48.308;8.914;2023-07-02T08:15:26;18.70;62.50
16032;DHT22;8120;48.308;8.914;2023-07-02T08:17:54;18.60;60.70
16032;DHT22;8120;48.308;8.914;2023-07-02T08:20:24;18.60;61.30
16032;DHT22;8120;48.308;8.914;2023-07-02T08:22:51;18.50;62.20
16032;DHT22;8120;48.308;8.914;2023-07-02T08:25:19;18.90;62.60
16032;DHT22;8120;48.308;8.914;2023-07-02T08:27:48;19.90;60.00
16032;DHT22;8120;48.308;8.914;2023-07-02T08:30:18;20.00;57.10
16032;DHT22;8120;48.308;8.914;2023-07-02T08:32:46;20.40;56.90
16032;DHT22;8120;48.308;8.914;2023-07-02T08:35:14;20.30;56.50
16032;DHT22;8120;48.308;8.914;2023-07-02T08:37:42;20.70;55.80
16032;DHT22;8120;48.308;8.914;2023-07-02T08:40:15;21.40;55.40
16032;DHT22;8120;48.308;8.914;2023-07-02T08:42:45;21.30;53.10
16032;DHT22;8120;48.308;8.914;2023-07-02T08:45:14;20.30;55.20
16032;DHT22;8120;48.308;8.914;2023-07-02T08:47:44;20.20;53.60
16032;DHT22;8120;48.308;8.914;2023-07-02T08:50:12;21.20;52.90
16032;DHT22;8120;48.308;8.914;2023-07-02T08:52:40;21.90;52.60
16032;DHT22;8120;48.308;8.914;2023-07-02T08:55:09;20.60;52.10
16032;DHT22;8120;48.308;8.914;2023-07-02T08:57:37;20.50;52.20
16032;DHT22;8120;48.308;8.914;2023-07-02T09:00:08;20.80;51.70
16032;DHT22;8120;48.308;8.914;2023-07-02T09:02:36;21.30;51.20
16032;DHT22;8120;48.308;8.914;2023-07-02T09:05:07;20.80;51.10
16032;DHT22;8120;48.308;8.914;2023-07-02T09:07:43;20.60;51.20
16032;DHT22;8120;48.308;8.914;2023-07-02T09:10:12;20.90;51.20
16032;DHT22;8120;48.308;8.914;2023-07-02T09:12:40;21.40;50.60
16032;DHT22;8120;48.308;8.914;2023-07-02T09:15:08;21.60;50.30
16032;DHT22;8120;48.308;8.914;2023-07-02T09:17:36;21.90;51.20
16032;DHT22;8120;48.308;8.914;2023-07-02T09:20:07;21.60;51.30
16032;DHT22;8120;48.308;8.914;2023-07-02T09:22:36;21.50;49.40
16032;DHT22;8120;48.308;8.914;2023-07-02T09:25:06;21.50;51.00
16032;DHT22;8120;48.308;8.914;2023-07-02T09:27:35;21.30;50.80
16032;DHT22;8120;48.308;8.914;2023-07-02T09:30:08;21.00;52.10
16032;DHT22;8120;48.308;8.914;2023-07-02T09:32:36;21.30;52.00
16032;DHT22;8120;48.308;8.914;2023-07-02T09:35:06;21.60;50.00
16032;DHT22;8120;48.308;8.914;2023-07-02T09:37:34;20.70;52.10
16032;DHT22;8120;48.308;8.914;2023-07-02T09:40:03;21.00;52.30
16032;DHT22;8120;48.308;8.914;2023-07-02T09:42:35;21.30;49.40
16032;DHT22;8120;48.308;8.914;2023-07-02T09:45:06;20.80;51.30
16032;DHT22;8120;48.308;8.914;2023-07-02T09:47:41;20.80;53.10
16032;DHT22;8120;48.308;8.914;2023-07-02T09:50:13;21.20;51.80
16032;DHT22;8120;48.308;8.914;2023-07-02T09:52:43;20.60;51.90
16032;DHT22;8120;48.308;8.914;2023-07-02T09:55:12;20.70;50.90
16032;DHT22;8120;48.308;8.914;2023-07-02T09:57:40;20.40;51.60
16032;DHT22;8120;48.308;8.914;2023-07-02T10:00:11;20.40;50.50
16032;DHT22;8120;48.308;8.914;2023-07-02T10:02:39;20.60;50.30
16032;DHT22;8120;48.308;8.914;2023-07-02T10:05:07;21.00;51.30
16032;DHT22;8120;48.308;8.914;2023-07-02T10:07:37;21.50;50.20
16032;DHT22;8120;48.308;8.914;2023-07-02T10:10:05;21.60;50.10
16032;DHT22;8120;48.308;8.914;2023-07-02T10:12:33;21.00;49.50
16032;DHT22;8120;48.308;8.914;2023-07-02T10:15:01;21.00;50.20
16032;DHT22;8120;48.308;8.914;2023-07-02T10:17:30;21.50;48.20
16032;DHT22;8120;48.308;8.914;2023-07-02T10:20:00;21.40;47.50
16032;DHT22;8120;48.308;8.914;2023-07-02T10:22:43;21.50;47.20
16032;DHT22;8120;48.308;8.914;2023-07-02T10:25:11;21.80;47.80
16032;DHT22;8120;48.308;8.914;2023-07-02T10:27:41;22.20;44.40
16032;DHT22;8120;48.308;8.914;2023-07-02T10:30:10;22.30;44.40
16032;DHT22;8120;48.308;8.914;2023-07-02T10:32:38;22.30;42.50
16032;DHT22;8120;48.308;8.914;2023-07-02T10:35:13;22.90;42.00
16032;DHT22;8120;48.308;8.914;2023-07-02T10:37:44;22.90;42.40
16032;DHT22;8120;48.308;8.914;2023-07-02T10:40:12;23.00;41.40
16032;DHT22;8120;48.308;8.914;2023-07-02T10:42:48;22.70;41.60
16032;DHT22;8120;48.308;8.914;2023-07-02T10:45:17;22.60;41.70
16032;DHT22;8120;48.308;8.914;2023-07-02T10:47:46;23.10;42.50
16032;DHT22;8120;48.308;8.914;2023-07-02T10:50:16;23.30;42.40
16032;DHT22;8120;48.308;8.914;2023-07-02T10:52:45;23.50;43.00
16032;DHT22;8120;48.308;8.914;2023-07-02T10:55:16;23.70;42.70
16032;DHT22;8120;48.308;8.914;2023-07-02T10:57:45;23.30;42.60
16032;DHT22;8120;48.308;8.914;2023-07-02T11:00:13;23.20;44.00
16032;DHT22;8120;48.308;8.914;2023-07-02T11:02:41;23.70;41.50
16032;DHT22;8120;48.308;8.914;2023-07-02T11:05:10;23.00;40.90
16032;DHT22;8120;48.308;8.914;2023-07-02T11:07:39;23.10;42.30
16032;DHT22;8120;48.308;8.914;2023-07-02T11:10:09;22.90;43.00
16032;DHT22;8120;48.308;8.914;2023-07-02T11:12:38;23.00;44.10
16032;DHT22;8120;48.308;8.914;2023-07-02T11:15:09;23.40;42.00
16032;DHT22;8120;48.308;8.914;2023-07-02T11:17:38;23.50;42.30
16032;DHT22;8120;48.308;8.914;2023-07-02T11:20:08;23.20;39.40
16032;DHT22;8120;48.308;8.914;2023-07-02T11:22:37;23.00;41.10
16032;DHT22;8120;48.308;8.914;2023-07-02T11:25:12;23.10;42.70
16032;DHT22;8120;48.308;8.914;2023-07-02T11:27:41;23.10;41.70
16032;DHT22;8120;48.308;8.914;2023-07-02T11:30:10;23.30;41.80
16032;DHT22;8120;48.308;8.914;2023-07-02T11:32:49;22.80;43.40
16032;DHT22;8120;48.308;8.914;2023-07-02T11:35:17;22.80;43.30
16032;DHT22;8120;48.308;8.914;2023-07-02T11:37:45;23.10;42.50
16032;DHT22;8120;48.308;8.914;2023-07-02T11:40:18;22.70;43.50
16032;DHT22;8120;48.308;8.914;2023-07-02T11:42:46;23.00;41.10
16032;DHT22;8120;48.308;8.914;2023-07-02T11:45:14;23.40;39.60
16032;DHT22;8120;48.308;8.914;2023-07-02T11:47:42;23.80;39.80
16032;DHT22;8120;48.308;8.914;2023-07-02T11:50:10;24.20;39.60
16032;DHT22;8120;48.308;8.914;2023-07-02T11:52:52;24.10;40.30
16032;DHT22;8120;48.308;8.914;2023-07-02T11:55:22;24.00;39.70
16032;DHT22;8120;48.308;8.914;2023-07-02T11:57:50;23.60;41.10
16032;DHT22;8120;48.308;8.914;2023-07-02T12:00:18;23.70;40.80
16032;DHT22;8120;48.308;8.914;2023-07-02T12:02:46;24.10;41.70
16032;DHT22;8120;48.308;8.914;2023-07-02T12:05:14;24.40;41.30
16032;DHT22;8120;48.308;8.914;2023-07-02T12:07:42;24.90;39.70
16032;DHT22;8120;48.308;8.914;2023-07-02T12:10:09;24.80;40.60
16032;DHT22;8120;48.308;8.914;2023-07-02T12:12:42;24.10;41.30
16032;DHT22;8120;48.308;8.914;2023-07-02T12:15:10;24.20;42.40
16032;DHT22;8120;48.308;8.914;2023-07-02T12:17:38;24.00;41.10
16032;DHT22;8120;48.308;8.914;2023-07-02T12:20:06;23.70;42.60
16032;DHT22;8120;48.308;8.914;2023-07-02T12:22:34;24.10;43.30
16032;DHT22;8120;48.308;8.914;2023-07-02T12:25:02;23.70;42.90
16032;DHT22;8120;48.308;8.914;2023-07-02T12:27:30;23.30;43.20
16032;DHT22;8120;48.308;8.914;2023-07-02T12:29:59;23.40;43.50
16032;DHT22;8120;48.308;8.914;2023-07-02T12:32:27;23.60;43.20
16032;DHT22;8120;48.308;8.914;2023-07-02T12:34:56;23.10;42.90
16032;DHT22;8120;48.308;8.914;2023-07-02T12:37:24;22.90;44.30
16032;DHT22;8120;48.308;8.914;2023-07-02T12:39:52;23.00;43.60
16032;DHT22;8120;48.308;8.914;2023-07-02T12:42:20;22.70;43.50
16032;DHT22;8120;48.308;8.914;2023-07-02T12:44:48;22.40;44.40
16032;DHT22;8120;48.308;8.914;2023-07-02T12:47:17;22.30;43.90
16032;DHT22;8120;48.308;8.914;2023-07-02T12:49:45;22.30;45.30
16032;DHT22;8120;48.308;8.914;2023-07-02T12:52:12;22.70;44.50
16032;DHT22;8120;48.308;8.914;2023-07-02T12:54:40;22.60;44.20
16032;DHT22;8120;48.308;8.914;2023-07-02T12:57:08;22.30;44.80
16032;DHT22;8120;48.308;8.914;2023-07-02T12:59:36;22.10;45.00
16032;DHT22;8120;48.308;8.914;2023-07-02T13:02:05;23.00;44.60
16032;DHT22;8120;48.308;8.914;2023-07-02T13:04:35;24.00;43.40
16032;DHT22;8120;48.308;8.914;2023-07-02T13:07:03;24.10;41.50
16032;DHT22;8120;48.308;8.914;2023-07-02T13:09:31;23.30;42.60
16032;DHT22;8120;48.308;8.914;2023-07-02T13:11:59;23.10;44.10
16032;DHT22;8120;48.308;8.914;2023-07-02T13:14:26;23.30;43.80
16032;DHT22;8120;48.308;8.914;2023-07-02T13:16:54;23.70;43.80
16032;DHT22;8120;48.308;8.914;2023-07-02T13:19:22;23.70;42.60
16032;DHT22;8120;48.308;8.914;2023-07-02T13:21:51;24.10;42.50
16032;DHT22;8120;48.308;8.914;2023-07-02T13:24:19;24.50;41.60
16032;DHT22;8120;48.308;8.914;2023-07-02T13:26:47;23.60;43.00
16032;DHT22;8120;48.308;8.914;2023-07-02T13:29:15;23.50;42.10
16032;DHT22;8120;48.308;8.914;2023-07-02T13:31:43;23.80;42.40
16032;DHT22;8120;48.308;8.914;2023-07-02T13:34:11;23.70;42.80
16032;DHT22;8120;48.308;8.914;2023-07-02T13:36:38;23.40;42.60
16032;DHT22;8120;48.308;8.914;2023-07-02T13:39:08;23.00;43.80
16032;DHT22;8120;48.308;8.914;2023-07-02T13:41:36;23.20;43.30
16032;DHT22;8120;48.308;8.914;2023-07-02T13:44:04;23.10;44.20
16032;DHT22;8120;48.308;8.914;2023-07-02T13:46:32;23.50;43.60
16032;DHT22;8120;48.308;8.914;2023-07-02T13:49:00;23.60;43.50
16032;DHT22;8120;48.308;8.914;2023-07-02T13:51:28;23.50;44.10
16032;DHT22;8120;48.308;8.914;2023-07-02T13:53:55;23.60;44.00
16032;DHT22;8120;48.308;8.914;2023-07-02T13:56:25;24.00;43.40
16032;DHT22;8120;48.308;8.914;2023-07-02T13:59:02;24.00;43.50
16032;DHT22;8120;48.308;8.914;2023-07-02T14:01:30;24.80;42.80
16032;DHT22;8120;48.308;8.914;2023-07-02T14:03:59;24.90;42.20
16032;DHT22;8120;48.308;8.914;2023-07-02T14:06:27;24.90;41.70
16032;DHT22;8120;48.308;8.914;2023-07-02T14:08:55;24.90;42.50
16032;DHT22;8120;48.308;8.914;2023-07-02T14:11:24;24.90;42.10
16032;DHT22;8120;48.308;8.914;2023-07-02T14:13:54;24.10;43.00
16032;DHT22;8120;48.308;8.914;2023-07-02T14:16:24;23.80;43.90
16032;DHT22;8120;48.308;8.914;2023-07-02T14:18:52;23.90;43.60
16032;DHT22;8120;48.308;8.914;2023-07-02T14:21:20;24.20;42.90
16032;DHT22;8120;48.308;8.914;2023-07-02T14:23:48;23.30;45.00
16032;DHT22;8120;48.308;8.914;2023-07-02T14:26:16;23.00;45.90
16032;DHT22;8120;48.308;8.914;2023-07-02T14:28:44;23.30;45.10
16032;DHT22;8120;48.308;8.914;2023-07-02T14:31:12;24.00;44.90
16032;DHT22;8120;48.308;8.914;2023-07-02T14:33:41;24.50;44.30
16032;DHT22;8120;48.308;8.914;2023-07-02T14:36:09;24.80;43.20
16032;DHT22;8120;48.308;8.914;2023-07-02T14:38:36;24.50;42.80
16032;DHT22;8120;48.308;8.914;2023-07-02T14:41:04;23.50;44.90
16032;DHT22;8120;48.308;8.914;2023-07-02T14:43:32;23.00;45.80
16032;DHT22;8120;48.308;8.914;2023-07-02T14:46:01;23.30;45.10
16032;DHT22;8120;48.308;8.914;2023-07-02T14:48:30;23.30;45.00
16032;DHT22;8120;48.308;8.914;2023-07-02T14:51:00;22.80;46.00
16032;DHT22;8120;48.308;8.914;2023-07-02T14:53:30;22.80;46.40
16032;DHT22;8120;48.308;8.914;2023-07-02T14:56:00;23.50;46.00
16032;DHT22;8120;48.308;8.914;2023-07-02T14:58:29;24.20;45.60
16032;DHT22;8120;48.308;8.914;2023-07-02T15:00:58;24.00;44.70
16032;DHT22;8120;48.308;8.914;2023-07-02T15:03:27;23.40;43.60
16032;DHT22;8120;48.308;8.914;2023-07-02T15:06:07;23.30;43.60
16032;DHT22;8120;48.308;8.914;2023-07-02T15:08:35;23.70;43.20
16032;DHT22;8120;48.308;8.914;2023-07-02T15:11:04;24.20;43.60
16032;DHT22;8120;48.308;8.914;2023-07-02T15:13:32;24.40;43.30
16032;DHT22;8120;48.308;8.914;2023-07-02T15:16:00;24.20;42.70
16032;DHT22;8120;48.308;8.914;2023-07-02T15:18:28;23.90;43.20
16032;DHT22;8120;48.308;8.914;2023-07-02T15:20:56;23.60;44.40
16032;DHT22;8120;48.308;8.914;2023-07-02T15:23:26;23.90;43.80
16032;DHT22;8120;48.308;8.914;2023-07-02T15:25:55;23.60;44.30
16032;DHT22;8120;48.308;8.914;2023-07-02T15:28:24;23.60;44.90
16032;DHT22;8120;48.308;8.914;2023-07-02T15:30:53;23.60;45.20
16032;DHT22;8120;48.308;8.914;2023-07-02T15:33:22;24.10;43.60
16032;DHT22;8120;48.308;8.914;2023-07-02T15:35:50;24.50;44.00
16032;DHT22;8120;48.308;8.914;2023-07-02T15:38:19;24.40;42.80
16032;DHT22;8120;48.308;8.914;2023-07-02T15:40:48;23.90;43.60
16032;DHT22;8120;48.308;8.914;2023-07-02T15:43:16;23.80;43.70
16032;DHT22;8120;48.308;8.914;2023-07-02T15:45:44;24.10;42.80
16032;DHT22;8120;48.308;8.914;2023-07-02T15:48:12;24.20;42.20
16032;DHT22;8120;48.308;8.914;2023-07-02T15:50:40;23.70;41.70
16032;DHT22;8120;48.308;8.914;2023-07-02T15:53:08;23.60;43.00